createdAt,value
2016-05-13T00:00:32.730Z,51.68
2016-05-13T00:01:32.717Z,51.49
2016-05-13T00:02:33.047Z,51.4
2016-05-13T00:03:32.675Z,51.4
2016-05-13T00:04:32.663Z,51.97
2016-05-13T00:05:32.650Z,51.49
2016-05-13T00:06:32.621Z,51.78
2016-05-13T00:07:32.608Z,51.78
2016-05-13T00:08:32.596Z,52.07
2016-05-13T00:09:32.566Z,52.26
2016-05-13T00:10:32.554Z,52.26
2016-05-13T00:11:32.541Z,52.55
2016-05-13T00:12:32.513Z,52.26
2016-05-13T00:13:32.499Z,52.45
2016-05-13T00:14:32.471Z,52.45
2016-05-13T00:15:32.457Z,52.74
2016-05-13T00:16:32.445Z,52.93
2016-05-13T00:17:32.415Z,53.22
2016-05-13T00:18:32.403Z,53.03
2016-05-13T00:19:32.391Z,52.93
2016-05-13T00:20:32.362Z,52.93
2016-05-13T00:21:32.349Z,53.03
2016-05-13T00:22:32.336Z,53.41
2016-05-13T00:23:32.323Z,53.22
2016-05-13T00:24:32.295Z,53
2016-05-13T00:25:32.281Z,53.28
2016-05-13T00:26:32.253Z,53.41
2016-05-13T00:27:32.240Z,53.58
2016-05-13T00:28:32.211Z,54.08
2016-05-13T00:29:32.198Z,53.86
2016-05-13T00:30:32.186Z,53.96
2016-05-13T00:31:32.157Z,53.96
2016-05-13T00:32:32.145Z,54.15
2016-05-13T00:33:32.116Z,54.34
2016-05-13T00:34:32.119Z,54.34
2016-05-13T00:35:32.089Z,53.96
2016-05-13T00:36:32.061Z,54.24
2016-05-13T00:37:32.048Z,54.05
2016-05-13T00:38:32.019Z,53.96
2016-05-13T00:39:32.007Z,54.24
2016-05-13T00:40:31.994Z,54.72
2016-05-13T00:41:31.966Z,54.72
2016-05-13T00:42:31.952Z,54.63
2016-05-13T00:43:31.940Z,54.82
2016-05-13T00:44:31.910Z,54.82
2016-05-13T00:45:31.898Z,54.63
2016-05-13T00:46:31.869Z,54.63
2016-05-13T00:47:31.857Z,54.91
2016-05-13T00:48:31.843Z,55.01
2016-05-13T00:49:31.815Z,55.11
2016-05-13T00:50:31.801Z,55.21
2016-05-13T00:51:31.789Z,55.11
2016-05-13T00:52:31.760Z,55.68
2016-05-13T00:53:31.747Z,55.11
2016-05-13T00:54:31.720Z,55.68
2016-05-13T00:55:31.706Z,55.78
2016-05-13T00:56:31.693Z,55.58
2016-05-13T00:57:31.665Z,55.49
2016-05-13T00:58:31.651Z,55.49
2016-05-13T00:59:31.623Z,55.3
2016-05-13T01:00:31.610Z,55.87
2016-05-13T01:01:31.608Z,55.97
2016-05-13T01:02:31.623Z,56.45
2016-05-13T01:03:31.654Z,55.97
2016-05-13T01:04:31.668Z,56.07
2016-05-13T01:05:31.699Z,56.07
2016-05-13T01:06:31.722Z,56.07
2016-05-13T01:07:31.709Z,56.61
2016-05-13T01:08:31.713Z,56.42
2016-05-13T01:09:31.699Z,56.42
2016-05-13T01:10:31.702Z,56.42
2016-05-13T01:11:31.702Z,56.26
2016-05-13T01:12:31.679Z,56.52
2016-05-13T01:13:31.671Z,56.81
2016-05-13T01:14:31.649Z,56.81
2016-05-13T01:15:31.641Z,57.28
2016-05-13T01:16:31.633Z,56.99
2016-05-13T01:17:31.606Z,57.09
2016-05-13T01:18:31.595Z,56.9
2016-05-13T01:19:31.568Z,56.71
2016-05-13T01:20:31.557Z,57.57
2016-05-13T01:21:31.545Z,57.38
2016-05-13T01:22:31.518Z,57.48
2016-05-13T01:23:31.506Z,57.28
2016-05-13T01:24:31.478Z,57.28
2016-05-13T01:25:31.467Z,57.48
2016-05-13T01:26:31.437Z,57.76
2016-05-13T01:27:31.426Z,58.05
2016-05-13T01:28:31.413Z,57.57
2016-05-13T01:29:31.400Z,57.76
2016-05-13T01:30:31.372Z,57.67
2016-05-13T01:31:31.344Z,57.95
2016-05-13T01:32:31.330Z,58.24
2016-05-13T01:33:31.333Z,58.15
2016-05-13T01:34:31.289Z,57.95
2016-05-13T01:35:31.276Z,58.53
2016-05-13T01:36:31.249Z,58.24
2016-05-13T01:37:31.235Z,57.95
2016-05-13T01:38:31.222Z,58.91
2016-05-13T01:39:31.209Z,58.91
2016-05-13T01:40:31.181Z,58.91
2016-05-13T01:41:31.152Z,58.53
2016-05-13T01:42:31.139Z,58.62
2016-05-13T01:43:31.110Z,59.01
2016-05-13T01:44:31.098Z,58.91
2016-05-13T01:45:31.084Z,59.01
2016-05-13T01:46:31.056Z,59.01
2016-05-13T01:47:31.043Z,59.11
2016-05-13T01:48:31.015Z,59.77
2016-05-13T01:49:31.002Z,59.55
2016-05-13T01:50:30.973Z,59.58
2016-05-13T01:51:30.961Z,59.39
2016-05-13T01:52:30.947Z,59.48
2016-05-13T01:53:30.919Z,59.45
2016-05-13T01:54:30.905Z,59.75
2016-05-13T01:55:30.877Z,59.39
2016-05-13T01:56:30.864Z,59.27
2016-05-13T01:57:30.852Z,59.77
2016-05-13T01:58:30.823Z,60.35
2016-05-13T01:59:30.810Z,59.84
2016-05-13T02:00:30.781Z,59.94
2016-05-13T02:01:30.768Z,59.84
2016-05-13T02:02:31.224Z,59.94
2016-05-13T02:03:30.727Z,59.94
2016-05-13T02:04:30.714Z,60.22
2016-05-13T02:05:30.685Z,60.22
2016-05-13T02:06:30.672Z,60.13
2016-05-13T02:07:30.643Z,59.94
2016-05-13T02:08:30.632Z,60.32
2016-05-13T02:09:30.618Z,60.41
2016-05-13T02:10:30.590Z,60.61
2016-05-13T02:11:30.577Z,60.41
2016-05-13T02:12:30.548Z,60.41
2016-05-13T02:13:30.534Z,60.61
2016-05-13T02:14:30.506Z,60.32
2016-05-13T02:15:30.494Z,60.7
2016-05-13T02:16:30.481Z,60.7
2016-05-13T02:17:30.499Z,60.51
2016-05-13T02:18:30.439Z,60.89
2016-05-13T02:19:30.410Z,60.61
2016-05-13T02:20:30.397Z,60.8
2016-05-13T02:21:30.369Z,60.99
2016-05-13T02:22:30.356Z,60.8
2016-05-13T02:23:30.343Z,60.89
2016-05-13T02:24:30.314Z,60.99
2016-05-13T02:25:30.302Z,60.7
2016-05-13T02:26:30.273Z,60.61
2016-05-13T02:27:30.260Z,60.99
2016-05-13T02:28:30.231Z,60.99
2016-05-13T02:29:30.219Z,61.28
2016-05-13T02:30:30.206Z,61.08
2016-05-13T02:31:30.177Z,60.89
2016-05-13T02:32:30.164Z,60.99
2016-05-13T02:33:30.135Z,60.99
2016-05-13T02:34:30.122Z,61.08
2016-05-13T02:35:30.093Z,61.28
2016-05-13T02:36:30.081Z,61.28
2016-05-13T02:37:30.053Z,61.85
2016-05-13T02:38:30.040Z,61.76
2016-05-13T02:39:30.027Z,61.85
2016-05-13T02:40:29.998Z,61.63
2016-05-13T02:41:29.985Z,61.66
2016-05-13T02:42:29.957Z,61.85
2016-05-13T02:43:29.943Z,61.85
2016-05-13T02:44:29.915Z,61.66
2016-05-13T02:45:29.902Z,61.37
2016-05-13T02:46:29.873Z,61.66
2016-05-13T02:47:29.861Z,61.47
2016-05-13T02:48:29.848Z,61.66
2016-05-13T02:49:29.820Z,61.66
2016-05-13T02:50:29.807Z,61.82
2016-05-13T02:51:29.778Z,61.82
2016-05-13T02:52:29.764Z,61.91
2016-05-13T02:53:29.736Z,62.3
2016-05-13T02:54:29.723Z,62.2
2016-05-13T02:55:29.694Z,62.4
2016-05-13T02:56:29.682Z,62.4
2016-05-13T02:57:29.653Z,62.49
2016-05-13T02:58:29.641Z,62.11
2016-05-13T02:59:29.627Z,62.2
2016-05-13T03:00:29.599Z,62.49
2016-05-13T03:01:29.586Z,62.68
2016-05-13T03:02:29.572Z,62.49
2016-05-13T03:03:29.544Z,62.68
2016-05-13T03:04:29.516Z,62.3
2016-05-13T03:05:29.503Z,62.2
2016-05-13T03:06:29.474Z,62.3
2016-05-13T03:07:29.461Z,62.3
2016-05-13T03:08:29.433Z,62.3
2016-05-13T03:09:29.421Z,62.3
2016-05-13T03:10:29.407Z,62.4
2016-05-13T03:11:29.379Z,62.4
2016-05-13T03:12:29.365Z,62.11
2016-05-13T03:13:29.337Z,62.4
2016-05-13T03:14:29.324Z,62.4
2016-05-13T03:15:29.311Z,62.4
2016-05-13T03:16:29.282Z,62.3
2016-05-13T03:17:29.254Z,62.49
2016-05-13T03:18:29.240Z,62.77
2016-05-13T03:19:29.212Z,62.59
2016-05-13T03:20:29.199Z,62.49
2016-05-13T03:21:29.170Z,62.68
2016-05-13T03:22:29.159Z,62.3
2016-05-13T03:23:29.145Z,62.77
2016-05-13T03:24:29.117Z,62.97
2016-05-13T03:25:29.103Z,62.97
2016-05-13T03:26:29.075Z,62.97
2016-05-13T03:27:29.062Z,63.16
2016-05-13T03:28:29.033Z,63.26
2016-05-13T03:29:29.020Z,62.87
2016-05-13T03:30:29.008Z,62.97
2016-05-13T03:31:28.979Z,63.03
2016-05-13T03:32:28.966Z,62.87
2016-05-13T03:33:28.938Z,63.16
2016-05-13T03:34:28.925Z,63.03
2016-05-13T03:35:28.897Z,62.94
2016-05-13T03:36:28.883Z,63.03
2016-05-13T03:37:28.855Z,62.94
2016-05-13T03:38:28.841Z,63.13
2016-05-13T03:39:28.813Z,63.13
2016-05-13T03:40:28.799Z,63.13
2016-05-13T03:41:28.772Z,62.84
2016-05-13T03:42:28.759Z,63.03
2016-05-13T03:43:28.730Z,62.94
2016-05-13T03:44:28.718Z,63.51
2016-05-13T03:45:28.688Z,63.32
2016-05-13T03:46:28.676Z,63.51
2016-05-13T03:47:28.648Z,63.42
2016-05-13T03:48:28.634Z,63.13
2016-05-13T03:49:28.606Z,63.32
2016-05-13T03:50:28.593Z,63.03
2016-05-13T03:51:28.579Z,63.03
2016-05-13T03:52:28.551Z,63.13
2016-05-13T03:53:28.539Z,63.6
2016-05-13T03:54:28.510Z,63.7
2016-05-13T03:55:28.497Z,63.6
2016-05-13T03:56:28.468Z,63.51
2016-05-13T03:57:28.455Z,63.32
2016-05-13T03:58:28.427Z,63.8
2016-05-13T03:59:28.414Z,63.23
2016-05-13T04:00:28.385Z,63.8
2016-05-13T04:01:28.373Z,63.13
2016-05-13T04:02:28.344Z,63.13
2016-05-13T04:03:28.331Z,63.42
2016-05-13T04:04:28.302Z,63.6
2016-05-13T04:05:28.289Z,63.89
2016-05-13T04:06:28.260Z,63.51
2016-05-13T04:07:28.248Z,63.89
2016-05-13T04:08:28.219Z,63.7
2016-05-13T04:09:28.207Z,63.32
2016-05-13T04:10:28.177Z,63.32
2016-05-13T04:11:28.165Z,63.6
2016-05-13T04:12:28.152Z,63.89
2016-05-13T04:13:28.124Z,63.42
2016-05-13T04:14:28.095Z,63.32
2016-05-13T04:15:28.098Z,63.6
2016-05-13T04:16:28.068Z,63.32
2016-05-13T04:17:28.290Z,63.51
2016-05-13T04:18:28.027Z,63.42
2016-05-13T04:19:28.015Z,63.51
2016-05-13T04:20:27.987Z,63.6
2016-05-13T04:21:27.957Z,63.42
2016-05-13T04:22:27.945Z,63.7
2016-05-13T04:23:27.915Z,63.7
2016-05-13T04:24:27.903Z,63.7
2016-05-13T04:25:27.874Z,63.51
2016-05-13T04:26:27.862Z,63.51
2016-05-13T04:27:27.833Z,63.6
2016-05-13T04:28:27.820Z,63.51
2016-05-13T04:29:27.807Z,63.32
2016-05-13T04:30:27.778Z,63.99
2016-05-13T04:31:27.766Z,63.51
2016-05-13T04:32:27.736Z,63.42
2016-05-13T04:33:27.724Z,63.99
2016-05-13T04:34:27.695Z,63.8
2016-05-13T04:35:27.683Z,63.7
2016-05-13T04:36:27.654Z,63.6
2016-05-13T04:37:27.641Z,63.42
2016-05-13T04:38:27.628Z,63.6
2016-05-13T04:39:27.600Z,63.13
2016-05-13T04:40:27.571Z,63.51
2016-05-13T04:41:27.558Z,63.03
2016-05-13T04:42:27.529Z,63.03
2016-05-13T04:43:27.516Z,63.13
2016-05-13T04:44:27.487Z,63.03
2016-05-13T04:45:27.475Z,63.13
2016-05-13T04:46:27.447Z,63.42
2016-05-13T04:47:27.434Z,63.42
2016-05-13T04:48:27.420Z,62.94
2016-05-13T04:49:27.392Z,62.94
2016-05-13T04:50:27.378Z,62.94
2016-05-13T04:51:27.350Z,63.23
2016-05-13T04:52:27.338Z,62.94
2016-05-13T04:53:27.309Z,62.94
2016-05-13T04:54:27.295Z,63.13
2016-05-13T04:55:27.283Z,62.65
2016-05-13T04:56:27.254Z,62.46
2016-05-13T04:57:27.242Z,62.46
2016-05-13T04:58:27.229Z,62.27
2016-05-13T04:59:27.200Z,62.17
2016-05-13T05:00:27.172Z,62.17
2016-05-13T05:01:27.158Z,62.74
2016-05-13T05:02:27.333Z,62.49
2016-05-13T05:03:27.117Z,62.2
2016-05-13T05:04:27.089Z,61.98
2016-05-13T05:05:27.076Z,62.2
2016-05-13T05:06:27.063Z,61.63
2016-05-13T05:07:27.034Z,61.44
2016-05-13T05:08:27.021Z,61.82
2016-05-13T05:09:26.993Z,61.72
2016-05-13T05:10:26.979Z,61.34
2016-05-13T05:11:26.952Z,61.34
2016-05-13T05:12:26.954Z,61.15
2016-05-13T05:13:26.925Z,60.96
2016-05-13T05:14:26.897Z,60.86
2016-05-13T05:15:26.884Z,60.86
2016-05-13T05:16:26.855Z,60.86
2016-05-13T05:17:26.842Z,60.96
2016-05-13T05:18:26.813Z,60.67
2016-05-13T05:19:26.801Z,60.67
2016-05-13T05:20:26.788Z,60.38
2016-05-13T05:21:26.759Z,60.29
2016-05-13T05:22:26.746Z,60.38
2016-05-13T05:23:26.717Z,60.1
2016-05-13T05:24:26.705Z,60.19
2016-05-13T05:25:26.692Z,60.19
2016-05-13T05:26:26.664Z,60.19
2016-05-13T05:27:26.650Z,59.43
2016-05-13T05:28:26.622Z,59.81
2016-05-13T05:29:26.608Z,59.52
2016-05-13T05:30:26.595Z,59.17
2016-05-13T05:31:26.568Z,58.76
2016-05-13T05:32:26.555Z,58.66
2016-05-13T05:33:26.542Z,58.79
2016-05-13T05:34:26.513Z,58.4
2016-05-13T05:35:26.500Z,58.31
2016-05-13T05:36:26.472Z,58.22
2016-05-13T05:37:26.458Z,58.02
2016-05-13T05:38:26.446Z,57.73
2016-05-13T05:39:26.417Z,57.54
2016-05-13T05:40:26.514Z,57.19
2016-05-13T05:41:26.391Z,57.67
2016-05-13T05:42:26.363Z,56.71
2016-05-13T05:43:26.349Z,56.42
2016-05-13T05:44:26.337Z,56.23
2016-05-13T05:45:26.307Z,56.13
2016-05-13T05:46:26.295Z,55.65
2016-05-13T05:47:26.283Z,55.56
2016-05-13T05:48:26.254Z,55.68
2016-05-13T05:49:26.241Z,55.3
2016-05-13T05:50:26.228Z,55.01
2016-05-13T05:51:26.199Z,54.91
2016-05-13T05:52:26.187Z,54.53
2016-05-13T05:53:26.173Z,53.86
2016-05-13T05:54:26.160Z,54.24
2016-05-13T05:55:26.131Z,53.99
2016-05-13T05:56:26.120Z,53.31
2016-05-13T05:57:26.106Z,52.93
2016-05-13T05:58:26.093Z,52.74
2016-05-13T05:59:26.081Z,52.07
2016-05-13T06:00:26.051Z,52.26
2016-05-13T06:01:26.039Z,52.26
2016-05-13T06:02:26.025Z,51.61
2016-05-13T06:03:26.013Z,51.61
2016-05-13T06:04:26.000Z,51.9
2016-05-13T06:05:25.972Z,51.14
2016-05-13T06:06:25.958Z,50.84
2016-05-13T06:07:25.961Z,51.04
2016-05-13T06:08:25.964Z,50.84
2016-05-13T06:09:25.920Z,50.84
2016-05-13T06:10:25.907Z,50.56
2016-05-13T06:11:25.877Z,50.46
2016-05-13T06:12:25.880Z,49.79
2016-05-13T06:13:25.852Z,49.79
2016-05-13T06:14:25.839Z,49.88
2016-05-13T06:15:25.826Z,50.01
2016-05-13T06:16:26.001Z,49.62
2016-05-13T06:17:25.801Z,49.15
2016-05-13T06:18:25.772Z,49.24
2016-05-13T06:19:25.760Z,48.85
2016-05-13T06:20:25.762Z,48.47
2016-05-13T06:21:25.733Z,48.79
2016-05-13T06:22:25.721Z,48.69
2016-05-13T06:23:25.707Z,48.02
2016-05-13T06:24:25.695Z,47.63
2016-05-13T06:25:25.681Z,47.44
2016-05-13T06:26:25.668Z,47.34
2016-05-13T06:27:25.656Z,47.44
2016-05-13T06:28:25.643Z,47.53
2016-05-13T06:29:25.629Z,46.96
2016-05-13T06:30:25.601Z,47.34
2016-05-13T06:31:25.603Z,46.58
2016-05-13T06:32:25.576Z,46.38
2016-05-13T06:33:25.562Z,46.19
2016-05-13T06:34:25.549Z,46.67
2016-05-13T06:35:25.536Z,46.19
2016-05-13T06:36:25.523Z,46.09
2016-05-13T06:37:25.510Z,46.28
2016-05-13T06:38:25.498Z,46.09
2016-05-13T06:39:25.485Z,46.28
2016-05-13T06:40:25.471Z,46.28
2016-05-13T06:41:25.458Z,46.38
2016-05-13T06:42:25.447Z,46.48
2016-05-13T06:43:25.432Z,46.38
2016-05-13T06:44:25.419Z,46.38
2016-05-13T06:45:25.391Z,46.38
2016-05-13T06:46:25.379Z,46.19
2016-05-13T06:47:25.366Z,46.17
2016-05-13T06:48:25.352Z,46.26
2016-05-13T06:49:25.340Z,46.36
2016-05-13T06:50:25.326Z,45.68
2016-05-13T06:51:25.313Z,46
2016-05-13T06:52:25.301Z,46.19
2016-05-13T06:53:25.287Z,45.52
2016-05-13T06:54:25.259Z,45.42
2016-05-13T06:55:25.246Z,45.32
2016-05-13T06:56:25.234Z,45.32
2016-05-13T06:57:25.237Z,45.32
2016-05-13T06:58:25.207Z,45.23
2016-05-13T06:59:25.194Z,45.32
2016-05-13T07:00:25.182Z,45.52
2016-05-13T07:01:25.170Z,45.42
2016-05-13T07:02:25.234Z,45.61
2016-05-13T07:03:25.143Z,45.32
2016-05-13T07:04:25.130Z,45.23
2016-05-13T07:05:25.117Z,45.14
2016-05-13T07:06:25.089Z,44.84
2016-05-13T07:07:25.075Z,44.84
2016-05-13T07:08:25.063Z,44.94
2016-05-13T07:09:25.049Z,44.94
2016-05-13T07:10:25.037Z,44.65
2016-05-13T07:11:25.024Z,44.38
2016-05-13T07:12:25.010Z,44.38
2016-05-13T07:13:24.998Z,43.91
2016-05-13T07:14:24.985Z,43.52
2016-05-13T07:15:24.972Z,43.43
2016-05-13T07:16:24.960Z,43.43
2016-05-13T07:17:24.946Z,43.91
2016-05-13T07:18:24.932Z,43.52
2016-05-13T07:19:24.921Z,43.52
2016-05-13T07:20:24.907Z,43.43
2016-05-13T07:21:24.894Z,43.45
2016-05-13T07:22:24.882Z,43.26
2016-05-13T07:23:24.869Z,42.49
2016-05-13T07:24:24.856Z,42.2
2016-05-13T07:25:24.842Z,41.83
2016-05-13T07:26:24.830Z,42.03
2016-05-13T07:27:24.817Z,41.74
2016-05-13T07:28:24.804Z,41.08
2016-05-13T07:29:24.885Z,40.8
2016-05-13T07:30:24.872Z,40.22
2016-05-13T07:31:24.781Z,39.66
2016-05-13T07:32:24.768Z,39.28
2016-05-13T07:33:24.755Z,39.47
2016-05-13T07:34:24.739Z,39.18
2016-05-13T07:35:24.726Z,38.79
2016-05-13T07:36:24.713Z,38.89
2016-05-13T07:37:24.700Z,38.53
2016-05-13T07:38:24.687Z,38.33
2016-05-13T07:39:24.675Z,38.62
2016-05-13T07:40:24.677Z,38.24
2016-05-13T07:41:24.664Z,38.24
2016-05-13T07:42:24.683Z,38.24
2016-05-13T07:43:24.639Z,38.62
2016-05-13T07:44:24.626Z,38.04
2016-05-13T07:45:24.613Z,38.04
2016-05-13T07:46:24.599Z,38.04
2016-05-13T07:47:24.586Z,38.14
2016-05-13T07:48:24.574Z,38.24
2016-05-13T07:49:24.561Z,38.43
2016-05-13T07:50:24.549Z,38.43
2016-05-13T07:51:24.535Z,38.6
2016-05-13T07:52:24.538Z,38.89
2016-05-13T07:53:24.525Z,38.97
2016-05-13T07:54:24.496Z,39.36
2016-05-13T07:55:24.499Z,39.64
2016-05-13T07:56:24.485Z,39.26
2016-05-13T07:57:24.473Z,39.64
2016-05-13T07:58:24.460Z,39.74
2016-05-13T07:59:24.448Z,39.74
2016-05-13T08:00:24.434Z,39.74
2016-05-13T08:01:24.421Z,39.74
2016-05-13T08:02:24.409Z,39.93
2016-05-13T08:03:24.411Z,40.22
2016-05-13T08:04:24.382Z,40.31
2016-05-13T08:05:24.369Z,40.88
2016-05-13T08:06:24.357Z,40.78
2016-05-13T08:07:24.344Z,40.2
2016-05-13T08:08:24.331Z,40.61
2016-05-13T08:09:24.318Z,40.51
2016-05-13T08:10:24.306Z,40.7
2016-05-13T08:11:24.292Z,40.61
2016-05-13T08:12:24.294Z,40.49
2016-05-13T08:13:24.281Z,40.41
2016-05-13T08:14:24.269Z,40.03
2016-05-13T08:15:24.272Z,39.72
2016-05-13T08:16:24.244Z,39.91
2016-05-13T08:17:24.449Z,39.64
2016-05-13T08:18:24.217Z,39.74
2016-05-13T08:19:24.205Z,39.26
2016-05-13T08:20:24.191Z,39.45
2016-05-13T08:21:24.178Z,39.45
2016-05-13T08:22:24.165Z,39.45
2016-05-13T08:23:24.169Z,39.54
2016-05-13T08:24:24.155Z,39.83
2016-05-13T08:25:24.142Z,39.16
2016-05-13T08:26:24.130Z,38.87
2016-05-13T08:27:24.116Z,38.78
2016-05-13T08:28:24.104Z,38.97
2016-05-13T08:29:24.106Z,38.87
2016-05-13T08:30:24.077Z,38.49
2016-05-13T08:31:24.080Z,38.31
2016-05-13T08:32:24.067Z,38.02
2016-05-13T08:33:24.054Z,37.45
2016-05-13T08:34:24.042Z,37.37
2016-05-13T08:35:24.044Z,36.99
2016-05-13T08:36:24.047Z,36.89
2016-05-13T08:37:24.018Z,36.89
2016-05-13T08:38:24.006Z,36.51
2016-05-13T08:39:23.993Z,36.69
2016-05-13T08:40:23.979Z,36.41
2016-05-13T08:41:23.982Z,36.33
2016-05-13T08:42:23.969Z,36.04
2016-05-13T08:43:23.956Z,36.13
2016-05-13T08:44:23.944Z,35.65
2016-05-13T08:45:23.946Z,35.28
2016-05-13T08:46:23.949Z,35.1
2016-05-13T08:47:23.936Z,34.8
2016-05-13T08:48:23.923Z,34.44
2016-05-13T08:49:23.910Z,34.63
2016-05-13T08:50:23.897Z,34.34
2016-05-13T08:51:23.883Z,34.05
2016-05-13T08:52:23.886Z,34.05
2016-05-13T08:53:23.874Z,34.06
2016-05-13T08:54:23.861Z,34.34
2016-05-13T08:55:23.879Z,33.66
2016-05-13T08:56:23.851Z,33.95
2016-05-13T08:57:23.838Z,33.95
2016-05-13T08:58:23.840Z,33.95
2016-05-13T08:59:23.827Z,33.66
2016-05-13T09:00:23.815Z,33.76
2016-05-13T09:01:23.818Z,33.78
2016-05-13T09:02:23.804Z,33.66
2016-05-13T09:03:23.823Z,33.39
2016-05-13T09:04:23.793Z,33.68
2016-05-13T09:05:23.781Z,33.29
2016-05-13T09:06:23.784Z,33.29
2016-05-13T09:07:23.770Z,33.29
2016-05-13T09:08:23.758Z,32.91
2016-05-13T09:09:23.745Z,32.91
2016-05-13T09:10:23.748Z,32.62
2016-05-13T09:11:23.734Z,32.34
2016-05-13T09:12:23.722Z,32.34
2016-05-13T09:13:23.725Z,32.15
2016-05-13T09:14:23.712Z,32.07
2016-05-13T09:15:23.698Z,31.59
2016-05-13T09:16:23.701Z,31.78
2016-05-13T09:17:23.688Z,30.91
2016-05-13T09:18:23.691Z,30.73
2016-05-13T09:19:23.678Z,30.44
2016-05-13T09:20:23.666Z,30.27
2016-05-13T09:21:23.668Z,29.59
2016-05-13T09:22:23.655Z,29.8
2016-05-13T09:23:23.658Z,29.5
2016-05-13T09:24:23.644Z,29.6
2016-05-13T09:25:23.647Z,29.22
2016-05-13T09:26:23.635Z,29.41
2016-05-13T09:27:23.638Z,29.32
2016-05-13T09:28:23.624Z,28.55
2016-05-13T09:29:23.611Z,28.65
2016-05-13T09:30:23.629Z,28.55
2016-05-13T09:31:23.616Z,28.36
2016-05-13T09:32:23.604Z,28.38
2016-05-13T09:33:23.591Z,27.98
2016-05-13T09:34:23.593Z,28.07
2016-05-13T09:35:23.581Z,27.58
2016-05-13T09:36:23.584Z,27.7
2016-05-13T09:37:23.586Z,28.07
2016-05-13T09:38:23.573Z,27.68
2016-05-13T09:39:23.575Z,27.68
2016-05-13T09:40:23.563Z,27.68
2016-05-13T09:41:23.565Z,27.78
2016-05-13T09:42:23.553Z,27.58
2016-05-13T09:43:23.555Z,27.68
2016-05-13T09:44:23.542Z,27.87
2016-05-13T09:45:23.545Z,28.07
2016-05-13T09:46:23.531Z,27.58
2016-05-13T09:47:23.613Z,27.57
2016-05-13T09:48:25.678Z,27.67
2016-05-13T09:49:23.758Z,27.67
2016-05-13T09:50:23.527Z,27.87
2016-05-13T09:51:23.514Z,27.2
2016-05-13T09:52:23.626Z,26.92
2016-05-13T09:53:23.504Z,26.73
2016-05-13T09:54:23.491Z,26.92
2016-05-13T09:55:23.493Z,26.92
2016-05-13T09:56:23.480Z,26.92
2016-05-13T09:57:23.483Z,26.53
2016-05-13T09:58:23.485Z,26.25
2016-05-13T09:59:23.474Z,26.25
2016-05-13T10:00:23.476Z,26.25
2016-05-13T10:01:23.463Z,26.25
2016-05-13T10:02:23.481Z,26.34
2016-05-13T10:03:23.452Z,26.05
2016-05-13T10:04:23.455Z,25.96
2016-05-13T10:05:23.442Z,25.95
2016-05-13T10:06:23.445Z,25.67
2016-05-13T10:07:23.432Z,25.77
2016-05-13T10:08:23.453Z,25.48
2016-05-13T10:09:23.499Z,24.99
2016-05-13T10:10:23.529Z,25.4
2016-05-13T10:11:23.575Z,25.4
2016-05-13T10:12:23.604Z,24.91
2016-05-13T10:13:23.638Z,25.3
2016-05-13T10:14:23.640Z,25.2
2016-05-13T10:15:23.658Z,24.43
2016-05-13T10:16:23.660Z,24.63
2016-05-13T10:17:23.679Z,24.15
2016-05-13T10:18:23.692Z,24.63
2016-05-13T10:19:23.684Z,24.34
2016-05-13T10:20:23.692Z,24.34
2016-05-13T10:21:23.684Z,24.15
2016-05-13T10:22:23.692Z,24.83
2016-05-13T10:23:23.684Z,24.72
2016-05-13T10:24:23.688Z,25.1
2016-05-13T10:25:23.693Z,25.2
2016-05-13T10:26:23.682Z,25.01
2016-05-13T10:27:23.687Z,25.09
2016-05-13T10:28:23.675Z,24.9
2016-05-13T10:29:23.679Z,25.48
2016-05-13T10:30:23.666Z,25.09
2016-05-13T10:31:23.669Z,25.19
2016-05-13T10:32:23.673Z,25.58
2016-05-13T10:33:23.661Z,25.66
2016-05-13T10:34:23.648Z,25.77
2016-05-13T10:35:23.651Z,25.77
2016-05-13T10:36:23.639Z,25.29
2016-05-13T10:37:23.642Z,25.09
2016-05-13T10:38:23.628Z,25.09
2016-05-13T10:39:23.631Z,25.29
2016-05-13T10:40:23.634Z,25.09
2016-05-13T10:41:23.622Z,24.99
2016-05-13T10:42:23.608Z,24.91
2016-05-13T10:43:23.611Z,24.72
2016-05-13T10:44:23.599Z,24.43
2016-05-13T10:45:23.601Z,24.23
2016-05-13T10:46:23.588Z,24.04
2016-05-13T10:47:23.590Z,24.05
2016-05-13T10:48:23.874Z,23.76
2016-05-13T10:49:23.580Z,23.76
2016-05-13T10:50:23.568Z,23.55
2016-05-13T10:51:23.571Z,23.55
2016-05-13T10:52:23.558Z,23.36
2016-05-13T10:53:23.560Z,23.18
2016-05-13T10:54:23.562Z,22.99
2016-05-13T10:55:23.862Z,22.69
2016-05-13T10:56:23.552Z,22.71
2016-05-13T10:57:23.539Z,22.31
2016-05-13T10:58:23.543Z,22.13
2016-05-13T10:59:23.529Z,21.94
2016-05-13T11:00:23.531Z,21.84
2016-05-13T11:01:23.534Z,21.84
2016-05-13T11:02:23.522Z,22.02
2016-05-13T11:03:23.525Z,22.02
2016-05-13T11:04:23.542Z,21.93
2016-05-13T11:05:23.514Z,21.92
2016-05-13T11:06:23.517Z,21.62
2016-05-13T11:07:23.503Z,21.44
2016-05-13T11:08:23.506Z,21.15
2016-05-13T11:09:23.509Z,20.96
2016-05-13T11:10:23.497Z,21.15
2016-05-13T11:11:23.499Z,21.06
2016-05-13T11:12:23.486Z,21.06
2016-05-13T11:13:23.489Z,20.39
2016-05-13T11:14:23.491Z,20.48
2016-05-13T11:15:23.478Z,20.39
2016-05-13T11:16:23.480Z,20.48
2016-05-13T11:17:23.483Z,20.3
2016-05-13T11:18:23.471Z,19.9
2016-05-13T11:19:23.474Z,20
2016-05-13T11:20:23.460Z,19.32
2016-05-13T11:21:23.463Z,19.42
2016-05-13T11:22:23.466Z,19.62
2016-05-13T11:23:23.469Z,18.55
2016-05-13T11:24:23.456Z,18.65
2016-05-13T11:25:23.459Z,18.15
2016-05-13T11:26:23.446Z,18.54
2016-05-13T11:27:24.948Z,18.25
2016-05-13T11:28:23.451Z,18.24
2016-05-13T11:29:23.454Z,17.95
2016-05-13T11:30:23.440Z,18.05
2016-05-13T11:31:23.443Z,18.05
2016-05-13T11:32:23.431Z,17.76
2016-05-13T11:33:23.433Z,18.05
2016-05-13T11:34:23.420Z,18.15
2016-05-13T11:35:23.423Z,18.05
2016-05-13T11:36:23.409Z,18.13
2016-05-13T11:37:23.412Z,18.13
2016-05-13T11:38:23.400Z,17.94
2016-05-13T11:39:23.403Z,17.36
2016-05-13T11:40:23.389Z,17.07
2016-05-13T11:41:23.392Z,16.97
2016-05-13T11:42:23.379Z,16.19
2016-05-13T11:43:23.382Z,16.19
2016-05-13T11:44:23.385Z,16
2016-05-13T11:45:23.371Z,15.81
2016-05-13T11:46:23.374Z,15.91
2016-05-13T11:47:23.361Z,15.81
2016-05-13T11:48:23.364Z,15.52
2016-05-13T11:49:23.367Z,15.12
2016-05-13T11:50:23.355Z,15.04
2016-05-13T11:51:23.341Z,14.55
2016-05-13T11:52:23.343Z,14.36
2016-05-13T11:53:23.330Z,14.26
2016-05-13T11:54:23.333Z,14.17
2016-05-13T11:55:23.321Z,13.97
2016-05-13T11:56:23.323Z,13.78
2016-05-13T11:57:23.326Z,13.78
2016-05-13T11:58:23.313Z,13.39
2016-05-13T11:59:23.315Z,13.39
2016-05-13T12:00:23.303Z,13.2
2016-05-13T12:01:23.305Z,13.2
2016-05-13T12:02:23.355Z,13.29
2016-05-13T12:03:23.295Z,13.2
2016-05-13T12:04:23.298Z,13.48
2016-05-13T12:05:23.301Z,13.29
2016-05-13T12:06:23.287Z,13.39
2016-05-13T12:07:23.290Z,13.1
2016-05-13T12:08:23.278Z,13.1
2016-05-13T12:09:23.280Z,13.01
2016-05-13T12:10:23.283Z,12.81
2016-05-13T12:11:23.270Z,13.01
2016-05-13T12:12:23.272Z,13.1
2016-05-13T12:13:23.588Z,12.82
2016-05-13T12:14:23.261Z,12.52
2016-05-13T12:15:23.264Z,12.33
2016-05-13T12:16:23.267Z,12.33
2016-05-13T12:17:23.255Z,12.42
2016-05-13T12:18:23.257Z,12.32
2016-05-13T12:19:23.260Z,12.42
2016-05-13T12:20:23.247Z,12.41
2016-05-13T12:21:23.266Z,12.13
2016-05-13T12:22:23.237Z,12.12
2016-05-13T12:23:23.240Z,12.8
2016-05-13T12:24:23.226Z,12.89
2016-05-13T12:25:23.230Z,12.8
2016-05-13T12:26:23.216Z,12.7
2016-05-13T12:27:23.219Z,12.79
2016-05-13T12:28:23.207Z,12.5
2016-05-13T12:29:23.209Z,12.6
2016-05-13T12:30:23.196Z,12.7
2016-05-13T12:31:23.183Z,12.5
2016-05-13T12:32:23.185Z,12.5
2016-05-13T12:33:23.173Z,12.88
2016-05-13T12:34:23.160Z,12.79
2016-05-13T12:35:23.162Z,12.88
2016-05-13T12:36:23.165Z,12.98
2016-05-13T12:37:23.153Z,12.49
2016-05-13T12:38:23.139Z,12.59
2016-05-13T12:39:23.127Z,12.69
2016-05-13T12:40:23.129Z,12.79
2016-05-13T12:41:23.116Z,12.69
2016-05-13T12:42:23.120Z,12.3
2016-05-13T12:43:23.122Z,12.12
2016-05-13T12:44:23.109Z,12.12
2016-05-13T12:45:23.096Z,11.82
2016-05-13T12:46:23.083Z,11.54
2016-05-13T12:47:23.898Z,11.54
2016-05-13T12:48:23.072Z,11.35
2016-05-13T12:49:23.075Z,11.15
2016-05-13T12:50:23.078Z,11.05
2016-05-13T12:51:23.065Z,11.06
2016-05-13T12:52:23.052Z,10.48
2016-05-13T12:53:23.055Z,10.77
2016-05-13T12:54:23.057Z,10.67
2016-05-13T12:55:23.044Z,10.57